Time;durP1;ratioP1;P1;durP2;ratioP2;P2;SDS_P1;SDS_P2;PMS_P1;PMS_P2;Temp;Humidity;BMP_temperature;BMP_pressure;BME280_temperature;BME280_humidity;BME280_pressure;Samples;Min_cycle;Max_cycle;Signal;HPM_P1;HPM_P2
2022/07/04 00:01:55;;;;;;;;;5.00;3.00;;;;;;;;4937090;28;45730;-50
2022/07/04 00:04:20;;;;;;;;;4.00;2.75;;;;;;;;4937459;28;45586;-53
2022/07/04 00:06:45;;;;;;;;;2.75;2.50;;;;;;;;4939561;28;46859;-50
2022/07/04 00:09:10;;;;;;;;;3.50;2.25;;;;;;;;4940860;28;45465;-47
2022/07/04 00:11:36;;;;;;;;;1.75;1.50;;;;;;;;4941344;28;45866;-51
2022/07/04 00:14:01;;;;;;;;;4.50;3.75;;;;;;;;4940534;28;45372;-50
2022/07/04 00:16:26;;;;;;;;;2.75;2.75;;;;;;;;4940664;28;46273;-54
2022/07/04 00:18:52;;;;;;;;;2.25;2.25;;;;;;;;4940465;28;45449;-52
2022/07/04 00:21:17;;;;;;;;;2.00;1.75;;;;;;;;4941137;28;45286;-49
2022/07/04 00:23:42;;;;;;;;;2.75;1.50;;;;;;;;4940917;28;45299;-53
2022/07/04 00:26:07;;;;;;;;;2.75;1.75;;;;;;;;4940796;28;45759;-52
2022/07/04 00:28:33;;;;;;;;;3.00;2.75;;;;;;;;4940947;28;45302;-46
2022/07/04 00:30:58;;;;;;;;;1.50;1.50;;;;;;;;4940502;28;45695;-48
2022/07/04 00:33:23;;;;;;;;;5.00;2.00;;;;;;;;4940754;28;45296;-52
2022/07/04 00:35:48;;;;;;;;;3.00;1.75;;;;;;;;4940359;28;46747;-50
2022/07/04 00:38:14;;;;;;;;;1.75;1.00;;;;;;;;4940561;28;45279;-48
2022/07/04 00:40:39;;;;;;;;;1.00;0.00;;;;;;;;4940422;28;45348;-52
2022/07/04 00:43:04;;;;;;;;;1.50;1.50;;;;;;;;4940306;28;45344;-53
2022/07/04 00:45:30;;;;;;;;;0.75;0.75;;;;;;;;4935785;28;45336;-50
2022/07/04 00:47:55;;;;;;;;;0.50;0.50;;;;;;;;4934848;28;45378;-51
2022/07/04 00:50:20;;;;;;;;;2.25;1.50;;;;;;;;4939265;28;45273;-47
2022/07/04 00:52:45;;;;;;;;;2.50;1.00;;;;;;;;4939476;28;45281;-46
2022/07/04 00:55:11;;;;;;;;;0.50;0.50;;;;;;;;4938542;28;46077;-51
2022/07/04 00:57:36;;;;;;;;;1.50;1.50;;;;;;;;4939311;28;45502;-54
2022/07/04 01:00:01;;;;;;;;;2.50;0.75;;;;;;;;4939966;28;45364;-48
2022/07/04 01:02:27;;;;;;;;;1.50;0.50;;;;;;;;4940874;28;45489;-53
2022/07/04 01:04:52;;;;;;;;;2.00;2.00;;;;;;;;4930306;28;46507;-50
2022/07/04 01:07:17;;;;;;;;;5.00;3.50;;;;;;;;4920577;28;45431;-49
2022/07/04 01:09:43;;;;;;;;;1.50;1.50;;;;;;;;4919948;28;45401;-51
2022/07/04 01:12:08;;;;;;;;;1.50;1.50;;;;;;;;4921400;28;45543;-47
2022/07/04 01:14:36;;;;;;;;;2.50;1.25;;;;;;;;4920548;28;45731;-53
2022/07/04 01:17:01;;;;;;;;;2.60;1.60;;;;;;;;4919500;28;45317;-53
2022/07/04 01:19:27;;;;;;;;;2.75;1.50;;;;;;;;4920374;28;45388;-54
2022/07/04 01:21:52;;;;;;;;;1.50;1.50;;;;;;;;4920719;28;45633;-48
2022/07/04 01:24:17;;;;;;;;;3.00;1.50;;;;;;;;4920046;28;45714;-49
2022/07/04 01:26:43;;;;;;;;;1.50;0.50;;;;;;;;4920548;28;45948;-47
2022/07/04 01:29:08;;;;;;;;;1.25;0.75;;;;;;;;4920724;28;45340;-51
2022/07/04 01:31:33;;;;;;;;;0.75;0.75;;;;;;;;4920062;28;45306;-51
2022/07/04 01:33:58;;;;;;;;;3.00;2.00;;;;;;;;4920488;28;46318;-49
2022/07/04 01:36:24;;;;;;;;;2.50;1.25;;;;;;;;4920079;28;45372;-48
2022/07/04 01:38:49;;;;;;;;;1.25;1.25;;;;;;;;4920591;28;45364;-48
2022/07/04 01:41:14;;;;;;;;;0.25;0.25;;;;;;;;4920327;28;45308;-52
2022/07/04 01:43:40;;;;;;;;;0.50;0.50;;;;;;;;4919878;28;46952;-53
2022/07/04 01:46:05;;;;;;;;;1.75;1.75;;;;;;;;4920461;28;45325;-52
2022/07/04 01:48:30;;;;;;;;;0.50;0.25;;;;;;;;4892698;28;45928;-49
2022/07/04 01:50:55;;;;;;;;;0.25;0.25;;;;;;;;4917361;28;45325;-49
2022/07/04 01:53:20;;;;;;;;;0.00;0.00;;;;;;;;4919836;28;45429;-48
2022/07/04 01:55:46;;;;;;;;;0.25;0.25;;;;;;;;4919576;28;45428;-46
2022/07/04 01:58:12;;;;;;;;;2.00;0.25;;;;;;;;4920459;28;45483;-50
2022/07/04 02:03:21;;;;;;;;;0.60;0.60;;;;;;;;4920264;28;45853;-48
2022/07/04 02:05:46;;;;;;;;;1.25;1.00;;;;;;;;4933319;28;45352;-50
2022/07/04 02:08:11;;;;;;;;;1.00;1.00;;;;;;;;4938118;28;45491;-52
2022/07/04 02:10:36;;;;;;;;;0.00;0.00;;;;;;;;4939098;28;45621;-51
2022/07/04 02:13:02;;;;;;;;;0.75;0.75;;;;;;;;4939052;28;46107;-48
2022/07/04 02:15:40;;;;;;;;;2.00;2.00;;;;;;;;4939160;28;45342;-47
2022/07/04 02:18:06;;;;;;;;;1.60;1.00;;;;;;;;4939232;28;45371;-49
2022/07/04 02:20:32;;;;;;;;;1.80;1.40;;;;;;;;4939540;28;45565;-48
2022/07/04 02:22:57;;;;;;;;;0.75;0.00;;;;;;;;4939062;28;46446;-49
2022/07/04 02:25:23;;;;;;;;;0.50;0.50;;;;;;;;4939297;28;45375;-48
2022/07/04 02:27:48;;;;;;;;;0.00;0.00;;;;;;;;4938181;28;45656;-48
2022/07/04 02:30:13;;;;;;;;;1.00;1.00;;;;;;;;4939024;28;45369;-49
2022/07/04 02:32:40;;;;;;;;;0.60;0.60;;;;;;;;4938770;28;45499;-50
2022/07/04 02:35:05;;;;;;;;;0.00;0.00;;;;;;;;4938623;28;45380;-46
2022/07/04 02:37:30;;;;;;;;;0.00;0.00;;;;;;;;4938760;28;45363;-49
2022/07/04 02:39:56;;;;;;;;;0.25;0.25;;;;;;;;4938727;28;45305;-52
2022/07/04 02:42:23;;;;;;;;;0.50;0.25;;;;;;;;4938164;28;46032;-48
2022/07/04 02:44:49;;;;;;;;;0.80;0.80;;;;;;;;4938243;28;45391;-47
2022/07/04 02:47:14;;;;;;;;;1.00;1.00;;;;;;;;4938265;28;45765;-50
2022/07/04 02:49:40;;;;;;;;;1.00;1.00;;;;;;;;4938783;28;45335;-51
2022/07/04 02:52:05;;;;;;;;;0.50;0.50;;;;;;;;4937967;28;46540;-52
2022/07/04 02:54:30;;;;;;;;;0.75;0.00;;;;;;;;4938391;28;45296;-53
2022/07/04 02:56:55;;;;;;;;;0.00;0.00;;;;;;;;4937988;28;45333;-49
2022/07/04 02:59:21;;;;;;;;;0.00;0.00;;;;;;;;4938496;28;45529;-48
2022/07/04 03:01:46;;;;;;;;;0.00;0.00;;;;;;;;4936776;28;45693;-50
2022/07/04 03:04:11;;;;;;;;;1.00;1.00;;;;;;;;4937390;28;45244;-51
2022/07/04 03:06:37;;;;;;;;;1.50;1.25;;;;;;;;4917922;28;45199;-46
2022/07/04 03:09:02;;;;;;;;;2.25;1.00;;;;;;;;4918186;28;45344;-45
2022/07/04 03:11:27;;;;;;;;;1.00;1.00;;;;;;;;4917638;28;45753;-48
2022/07/04 03:13:52;;;;;;;;;0.00;0.00;;;;;;;;4918749;28;45300;-53
2022/07/04 03:16:18;;;;;;;;;1.00;1.00;;;;;;;;4918742;28;45238;-50
2022/07/04 03:18:43;;;;;;;;;2.50;1.50;;;;;;;;4919476;28;45273;-50
2022/07/04 03:21:08;;;;;;;;;1.00;1.00;;;;;;;;4918706;28;46806;-51
2022/07/04 03:23:34;;;;;;;;;1.00;1.00;;;;;;;;4918423;28;45301;-51
2022/07/04 03:25:59;;;;;;;;;0.00;0.00;;;;;;;;4919065;28;45699;-49
2022/07/04 03:28:25;;;;;;;;;0.00;0.00;;;;;;;;4918946;28;45198;-46
2022/07/04 03:30:50;;;;;;;;;0.50;0.00;;;;;;;;4918632;28;46561;-46
2022/07/04 03:33:15;;;;;;;;;0.00;0.00;;;;;;;;4917225;28;45409;-48
2022/07/04 03:35:40;;;;;;;;;0.00;0.00;;;;;;;;4918752;28;45214;-51
2022/07/04 03:38:06;;;;;;;;;1.50;1.00;;;;;;;;4918980;28;45397;-51
2022/07/04 03:40:32;;;;;;;;;0.00;0.00;;;;;;;;4917748;28;45856;-51
2022/07/04 03:42:58;;;;;;;;;1.60;1.00;;;;;;;;4892296;28;45546;-52
2022/07/04 03:45:23;;;;;;;;;0.00;0.00;;;;;;;;4917478;28;45345;-49
2022/07/04 03:47:49;;;;;;;;;1.25;0.00;;;;;;;;4918634;28;45339;-50
2022/07/04 03:50:14;;;;;;;;;1.00;1.00;;;;;;;;4918188;28;45737;-47
2022/07/04 03:52:39;;;;;;;;;1.00;1.00;;;;;;;;4918188;28;45391;-47
2022/07/04 03:55:05;;;;;;;;;2.75;1.00;;;;;;;;4918558;28;45384;-51
2022/07/04 03:57:30;;;;;;;;;1.75;1.75;;;;;;;;4918353;28;45361;-55
2022/07/04 03:59:55;;;;;;;;;2.25;2.25;;;;;;;;4918179;28;46727;-50
2022/07/04 04:02:21;;;;;;;;;1.00;1.00;;;;;;;;4918123;28;45431;-48
2022/07/04 04:07:30;;;;;;;;;1.80;1.40;;;;;;;;4937477;28;45499;-48
2022/07/04 04:09:55;;;;;;;;;1.00;1.00;;;;;;;;4937192;28;46908;-51
2022/07/04 04:12:21;;;;;;;;;1.50;1.50;;;;;;;;4937363;28;45343;-49
2022/07/04 04:14:46;;;;;;;;;1.25;1.25;;;;;;;;4937367;28;46122;-51
2022/07/04 04:17:11;;;;;;;;;1.00;1.00;;;;;;;;4937231;28;45361;-49
2022/07/04 04:19:37;;;;;;;;;1.50;1.50;;;;;;;;4936973;28;45589;-49
2022/07/04 04:22:02;;;;;;;;;1.50;1.00;;;;;;;;4937177;28;45340;-48
2022/07/04 04:24:27;;;;;;;;;4.00;1.75;;;;;;;;4937442;28;45856;-51
2022/07/04 04:26:53;;;;;;;;;1.75;1.50;;;;;;;;4937166;28;45349;-51
2022/07/04 04:29:18;;;;;;;;;2.25;2.25;;;;;;;;4937326;28;45928;-52
2022/07/04 04:31:43;;;;;;;;;2.50;1.50;;;;;;;;4936922;28;45436;-49
2022/07/04 04:34:08;;;;;;;;;1.75;1.00;;;;;;;;4937526;28;45299;-45
2022/07/04 04:36:34;;;;;;;;;1.00;1.00;;;;;;;;4937077;28;45442;-46
2022/07/04 04:38:59;;;;;;;;;1.00;1.00;;;;;;;;4936777;28;45385;-48
2022/07/04 04:41:24;;;;;;;;;1.00;1.00;;;;;;;;4937148;28;45410;-51
2022/07/04 04:43:50;;;;;;;;;2.00;2.00;;;;;;;;4937040;28;45231;-53
2022/07/04 04:46:15;;;;;;;;;2.00;2.00;;;;;;;;4937307;28;45375;-48
2022/07/04 04:48:40;;;;;;;;;3.00;1.00;;;;;;;;4936902;28;45793;-53
2022/07/04 04:51:05;;;;;;;;;3.00;2.25;;;;;;;;4936959;28;45366;-51
2022/07/04 04:53:31;;;;;;;;;3.75;2.75;;;;;;;;4940121;28;45339;-50
2022/07/04 04:55:56;;;;;;;;;2.25;2.00;;;;;;;;4940147;28;45322;-47
2022/07/04 04:58:21;;;;;;;;;3.00;3.00;;;;;;;;4940035;28;46458;-53
2022/07/04 05:00:48;;;;;;;;;2.50;2.50;;;;;;;;4940166;28;45151;-52
2022/07/04 05:03:14;;;;;;;;;4.20;2.00;;;;;;;;4939681;28;45288;-53
2022/07/04 05:05:39;;;;;;;;;4.00;2.00;;;;;;;;4930405;28;45605;-54
2022/07/04 05:08:04;;;;;;;;;3.25;2.50;;;;;;;;4920695;28;46491;-48
2022/07/04 05:10:29;;;;;;;;;3.00;3.00;;;;;;;;4920804;28;45324;-49
2022/07/04 05:12:55;;;;;;;;;2.00;2.00;;;;;;;;4920362;28;45349;-49
2022/07/04 05:15:20;;;;;;;;;5.25;2.25;;;;;;;;4920609;28;45520;-50
2022/07/04 05:17:45;;;;;;;;;2.00;2.00;;;;;;;;4920836;28;46455;-50
2022/07/04 05:20:11;;;;;;;;;3.00;2.00;;;;;;;;4920239;28;45431;-49
2022/07/04 05:22:36;;;;;;;;;2.50;2.50;;;;;;;;4921026;28;45321;-52
2022/07/04 05:25:02;;;;;;;;;2.25;2.00;;;;;;;;4921006;28;45623;-48
2022/07/04 05:27:27;;;;;;;;;3.00;3.00;;;;;;;;4920643;28;46523;-52
2022/07/04 05:29:52;;;;;;;;;1.25;1.25;;;;;;;;4920620;28;45153;-55
2022/07/04 05:32:17;;;;;;;;;2.00;2.00;;;;;;;;4920494;28;45349;-52
2022/07/04 05:34:43;;;;;;;;;4.00;2.00;;;;;;;;4921104;28;45194;-52
2022/07/04 05:37:08;;;;;;;;;2.00;2.00;;;;;;;;4920293;28;46571;-52
2022/07/04 05:39:33;;;;;;;;;5.00;3.50;;;;;;;;4920226;28;45320;-48
2022/07/04 05:41:59;;;;;;;;;3.00;3.00;;;;;;;;4920691;28;45436;-49
2022/07/04 05:44:24;;;;;;;;;2.00;2.00;;;;;;;;4920711;28;45138;-49
2022/07/04 05:46:49;;;;;;;;;2.00;2.00;;;;;;;;4918988;28;46251;-54
2022/07/04 05:49:14;;;;;;;;;4.00;4.00;;;;;;;;4920113;28;45363;-52
2022/07/04 05:51:40;;;;;;;;;3.25;3.00;;;;;;;;4920576;28;45299;-48
2022/07/04 05:54:05;;;;;;;;;4.75;2.25;;;;;;;;4920685;28;45284;-46
2022/07/04 05:56:30;;;;;;;;;2.25;2.00;;;;;;;;4919868;28;46590;-48
2022/07/04 05:58:56;;;;;;;;;3.00;2.00;;;;;;;;4919822;28;45286;-49
2022/07/04 06:01:21;;;;;;;;;2.00;2.00;;;;;;;;4920137;28;45257;-49
2022/07/04 06:03:46;;;;;;;;;4.00;2.00;;;;;;;;4919903;28;45332;-50
2022/07/04 06:06:11;;;;;;;;;3.50;1.75;;;;;;;;4933326;28;46397;-48
2022/07/04 06:08:37;;;;;;;;;5.25;5.25;;;;;;;;4939401;28;45513;-48
2022/07/04 06:11:02;;;;;;;;;6.25;5.50;;;;;;;;4919225;28;45419;-47
2022/07/04 06:13:28;;;;;;;;;3.25;3.25;;;;;;;;4936335;28;46049;-53
2022/07/04 06:15:53;;;;;;;;;4.25;2.50;;;;;;;;4938460;28;46603;-50
2022/07/04 06:18:19;;;;;;;;;3.50;2.25;;;;;;;;4938367;28;45346;-49
2022/07/04 06:20:44;;;;;;;;;3.25;3.25;;;;;;;;4937660;28;45363;-48
2022/07/04 06:23:09;;;;;;;;;4.00;4.00;;;;;;;;4938781;28;45433;-44
2022/07/04 06:25:34;;;;;;;;;4.50;4.00;;;;;;;;4935312;28;45555;-47
2022/07/04 06:28:00;;;;;;;;;4.25;3.25;;;;;;;;4935629;28;45962;-49
2022/07/04 06:30:25;;;;;;;;;3.00;3.00;;;;;;;;4938985;28;45841;-49
2022/07/04 06:32:54;;;;;;;;;3.00;3.00;;;;;;;;4936906;28;45702;-46
2022/07/04 06:38:04;;;;;;;;;4.20;2.80;;;;;;;;4932655;28;45264;-46
2022/07/04 06:40:29;;;;;;;;;5.00;5.00;;;;;;;;4918877;28;45577;-49
2022/07/04 06:42:55;;;;;;;;;3.00;3.00;;;;;;;;4919358;28;45506;-47
2022/07/04 06:45:20;;;;;;;;;3.00;3.00;;;;;;;;4919113;28;45346;-51
2022/07/04 06:47:45;;;;;;;;;5.25;3.75;;;;;;;;4919043;28;45337;-49
2022/07/04 06:50:10;;;;;;;;;3.00;3.00;;;;;;;;4921302;28;45483;-47
2022/07/04 06:52:36;;;;;;;;;2.50;2.50;;;;;;;;4937981;28;45681;-47
2022/07/04 06:55:01;;;;;;;;;2.00;2.00;;;;;;;;4938218;28;46167;-48
2022/07/04 06:57:26;;;;;;;;;2.00;2.00;;;;;;;;4937100;28;45390;-51
2022/07/04 06:59:52;;;;;;;;;3.00;3.00;;;;;;;;4937536;28;45248;-51
2022/07/04 07:02:17;;;;;;;;;4.00;4.00;;;;;;;;4938366;28;45557;-47
2022/07/04 07:04:42;;;;;;;;;3.00;3.00;;;;;;;;4937655;28;46541;-48
2022/07/04 07:07:08;;;;;;;;;4.00;4.00;;;;;;;;4918706;28;45315;-49
2022/07/04 07:09:33;;;;;;;;;3.00;3.00;;;;;;;;4918438;28;45484;-49
2022/07/04 07:11:58;;;;;;;;;3.25;2.00;;;;;;;;4919099;28;45392;-53
2022/07/04 07:14:24;;;;;;;;;2.00;2.00;;;;;;;;4918353;28;45699;-53
2022/07/04 07:16:49;;;;;;;;;2.50;2.50;;;;;;;;4917637;28;45484;-51
2022/07/04 07:19:14;;;;;;;;;4.50;3.25;;;;;;;;4918728;28;45336;-54
2022/07/04 07:21:39;;;;;;;;;3.50;3.00;;;;;;;;4919051;28;45676;-46
2022/07/04 07:24:05;;;;;;;;;2.25;2.25;;;;;;;;4918672;28;46085;-45
2022/07/04 07:26:30;;;;;;;;;2.00;2.00;;;;;;;;4920617;28;45709;-47
2022/07/04 07:28:55;;;;;;;;;2.50;2.50;;;;;;;;4936196;28;45456;-53
2022/07/04 07:31:20;;;;;;;;;3.00;3.00;;;;;;;;4936301;28;45386;-55
2022/07/04 07:33:46;;;;;;;;;4.00;3.00;;;;;;;;4937333;28;46757;-49
2022/07/04 07:36:11;;;;;;;;;3.00;3.00;;;;;;;;4937439;28;45343;-53
2022/07/04 07:38:36;;;;;;;;;4.00;3.25;;;;;;;;4891511;28;45245;-51
2022/07/04 07:41:02;;;;;;;;;6.00;5.00;;;;;;;;4903303;28;45663;-52
2022/07/04 07:43:27;;;;;;;;;2.75;2.75;;;;;;;;4918242;28;46180;-50
2022/07/04 07:45:52;;;;;;;;;4.00;4.00;;;;;;;;4918184;28;45314;-47
2022/07/04 07:48:18;;;;;;;;;3.75;3.75;;;;;;;;4918625;28;45294;-46
2022/07/04 07:50:43;;;;;;;;;6.25;5.75;;;;;;;;4918840;28;45595;-52
2022/07/04 07:53:08;;;;;;;;;6.75;5.50;;;;;;;;4921071;28;45416;-55
2022/07/04 07:55:33;;;;;;;;;2.75;2.75;;;;;;;;4937191;28;45371;-50
2022/07/04 07:58:02;;;;;;;;;3.50;3.50;;;;;;;;4937636;28;45418;-51
2022/07/04 08:00:27;;;;;;;;;4.60;4.60;;;;;;;;4936215;28;45633;-53
2022/07/04 08:05:40;;;;;;;;;4.00;3.00;;;;;;;;4928074;28;45400;-47
2022/07/04 08:08:07;;;;;;;;;3.40;3.40;;;;;;;;4937343;28;45395;-51
2022/07/04 08:10:32;;;;;;;;;3.80;2.80;;;;;;;;4937284;28;45505;-49
2022/07/04 08:12:58;;;;;;;;;2.50;2.50;;;;;;;;4937233;28;45499;-54
2022/07/04 08:15:24;;;;;;;;;3.80;2.40;;;;;;;;4937057;28;45363;-53
2022/07/04 08:17:49;;;;;;;;;3.00;2.00;;;;;;;;4920653;28;45383;-51
2022/07/04 08:20:14;;;;;;;;;4.00;4.00;;;;;;;;4924173;28;45377;-46
2022/07/04 08:22:39;;;;;;;;;2.00;2.00;;;;;;;;4935310;28;46662;-48
2022/07/04 08:25:05;;;;;;;;;4.00;2.25;;;;;;;;4935633;28;45662;-53
2022/07/04 08:27:30;;;;;;;;;2.00;2.00;;;;;;;;4939125;28;45317;-52
2022/07/04 08:29:55;;;;;;;;;1.75;1.75;;;;;;;;4940845;28;45530;-53
2022/07/04 08:32:21;;;;;;;;;3.25;1.75;;;;;;;;4934160;28;45519;-48
2022/07/04 08:34:46;;;;;;;;;2.00;2.00;;;;;;;;4935860;28;45500;-49
2022/07/04 08:37:12;;;;;;;;;3.00;1.50;;;;;;;;4939167;28;45288;-48
2022/07/04 08:39:37;;;;;;;;;1.50;1.50;;;;;;;;4938812;28;45357;-51
2022/07/04 08:42:03;;;;;;;;;5.75;3.50;;;;;;;;4913200;28;46580;-50
2022/07/04 08:44:28;;;;;;;;;3.00;1.80;;;;;;;;4926174;28;45729;-53
2022/07/04 08:46:54;;;;;;;;;3.25;3.25;;;;;;;;4939271;28;45415;-54
2022/07/04 08:49:23;;;;;;;;;2.75;2.75;;;;;;;;4938385;28;45598;-48
2022/07/04 08:51:55;;;;;;;;;3.00;2.40;;;;;;;;4938430;28;45240;-50
2022/07/04 08:59:54;;;;;;;;;2.60;2.60;;;;;;;;4918144;28;45520;-53
2022/07/04 09:02:19;;;;;;;;;2.40;1.20;;;;;;;;4932513;28;46624;-47
2022/07/04 09:04:44;;;;;;;;;1.75;1.75;;;;;;;;4933286;28;45701;-51
2022/07/04 09:07:13;;;;;;;;;1.50;1.50;;;;;;;;4919414;28;45540;-54
2022/07/04 09:09:41;;;;;;;;;3.00;2.00;;;;;;;;4934439;28;45505;-50
2022/07/04 09:12:08;;;;;;;;;1.00;1.00;;;;;;;;4929544;28;45583;-57
2022/07/04 09:14:33;;;;;;;;;1.00;1.00;;;;;;;;4915896;28;45528;-50
2022/07/04 09:16:58;;;;;;;;;2.00;2.00;;;;;;;;4915610;28;45432;-54
2022/07/04 09:19:24;;;;;;;;;0.50;0.25;;;;;;;;4914318;28;45567;-52
2022/07/04 09:21:49;;;;;;;;;1.75;1.75;;;;;;;;4916269;28;46098;-56
2022/07/04 09:24:14;;;;;;;;;0.75;0.75;;;;;;;;4916361;28;45454;-51
2022/07/04 09:26:46;;;;;;;;;0.25;0.25;;;;;;;;4915218;28;45572;-48
2022/07/04 09:29:11;;;;;;;;;2.60;1.80;;;;;;;;4916368;28;45743;-54
2022/07/04 09:31:37;;;;;;;;;2.75;2.00;;;;;;;;4921256;28;46932;-51
2022/07/04 09:34:06;;;;;;;;;1.00;1.00;;;;;;;;4935528;28;45498;-49
2022/07/04 09:36:32;;;;;;;;;2.80;2.80;;;;;;;;4930217;28;45556;-50
2022/07/04 09:39:04;;;;;;;;;1.80;1.80;;;;;;;;4946236;28;45400;-56
2022/07/04 09:41:34;;;;;;;;;3.60;1.60;;;;;;;;4934551;28;46622;-49
2022/07/04 09:44:04;;;;;;;;;2.80;2.80;;;;;;;;4925145;28;45445;-54
2022/07/04 09:46:29;;;;;;;;;2.60;2.20;;;;;;;;4915688;28;45769;-54
2022/07/04 09:48:54;;;;;;;;;3.50;2.75;;;;;;;;4915646;28;45547;-49
2022/07/04 09:51:35;;;;;;;;;1.25;1.25;;;;;;;;4924984;28;45783;-52
2022/07/04 09:54:22;;;;;;;;;1.60;1.60;;;;;;;;4880051;28;47908;-54
2022/07/04 09:56:51;;;;;;;;;1.60;1.60;;;;;;;;4892484;28;45479;-55
2022/07/04 09:59:16;;;;;;;;;2.20;1.40;;;;;;;;4892930;29;45860;-48
2022/07/04 10:01:42;;;;;;;;;5.00;3.00;;;;;;;;4893193;29;46767;-56
2022/07/04 10:04:07;;;;;;;;;1.00;1.00;;;;;;;;4893084;29;45433;-58
2022/07/04 10:06:33;;;;;;;;;1.00;1.00;;;;;;;;4910173;28;45916;-53
2022/07/04 10:09:27;;;;;;;;;1.75;1.75;;;;;;;;4933139;28;45523;-51
2022/07/04 10:11:52;;;;;;;;;1.00;1.00;;;;;;;;4932793;28;46898;-54
2022/07/04 10:14:18;;;;;;;;;2.25;2.25;;;;;;;;4933751;28;45530;-55
2022/07/04 10:16:43;;;;;;;;;2.00;0.00;;;;;;;;4934332;28;45890;-52
2022/07/04 10:19:09;;;;;;;;;1.50;1.50;;;;;;;;4909565;28;45410;-51
2022/07/04 10:21:34;;;;;;;;;1.00;1.00;;;;;;;;4915315;28;46321;-55
2022/07/04 10:24:00;;;;;;;;;1.00;1.00;;;;;;;;4914270;28;45751;-55
2022/07/04 10:26:25;;;;;;;;;2.00;1.00;;;;;;;;4913582;28;45606;-54
2022/07/04 10:28:52;;;;;;;;;2.75;1.00;;;;;;;;4913399;28;45465;-52
2022/07/04 10:31:17;;;;;;;;;2.20;2.20;;;;;;;;4921606;28;46082;-50
2022/07/04 10:33:43;;;;;;;;;1.00;1.00;;;;;;;;4914592;28;45928;-48
2022/07/04 10:36:17;;;;;;;;;2.25;1.00;;;;;;;;4912038;28;45442;-51
2022/07/04 10:38:50;;;;;;;;;3.20;3.20;;;;;;;;4914765;28;45830;-53
2022/07/04 10:41:15;;;;;;;;;3.00;2.40;;;;;;;;4914130;28;46838;-50
2022/07/04 10:43:53;;;;;;;;;3.00;2.00;;;;;;;;4912138;28;45707;-53
2022/07/04 10:46:22;;;;;;;;;2.00;2.00;;;;;;;;4914216;28;45690;-56
2022/07/04 10:49:01;;;;;;;;;2.00;2.00;;;;;;;;4914597;28;45856;-50
2022/07/04 10:51:38;;;;;;;;;2.80;2.80;;;;;;;;4913559;28;45820;-55
2022/07/04 10:54:04;;;;;;;;;7.80;5.40;;;;;;;;4892324;28;45743;-47
2022/07/04 10:56:31;;;;;;;;;1.00;1.00;;;;;;;;4922547;28;45424;-54
2022/07/04 10:58:57;;;;;;;;;2.00;2.00;;;;;;;;4913794;28;45478;-57
2022/07/04 11:01:22;;;;;;;;;2.60;2.00;;;;;;;;4913917;28;46739;-58
2022/07/04 11:03:48;;;;;;;;;3.25;2.00;;;;;;;;4914550;28;45727;-57
2022/07/04 11:06:32;;;;;;;;;0.60;0.60;;;;;;;;4920947;28;45436;-56
2022/07/04 11:09:11;;;;;;;;;3.00;1.20;;;;;;;;4925749;28;45437;-56
2022/07/04 11:11:55;;;;;;;;;2.40;2.40;;;;;;;;4897090;28;47769;-52
2022/07/04 11:14:36;;;;;;;;;1.00;1.00;;;;;;;;4914185;28;45416;-58
2022/07/04 11:17:08;;;;;;;;;1.20;1.20;;;;;;;;4897230;28;45546;-50
2022/07/04 11:19:33;;;;;;;;;3.00;3.00;;;;;;;;4914739;28;45621;-52
2022/07/04 11:21:58;;;;;;;;;2.75;1.00;;;;;;;;4913677;28;45622;-53
2022/07/04 11:24:24;;;;;;;;;1.50;1.50;;;;;;;;4912949;28;45479;-53
2022/07/04 11:26:49;;;;;;;;;3.00;2.25;;;;;;;;4913166;28;45834;-54
2022/07/04 11:29:14;;;;;;;;;3.00;3.00;;;;;;;;4914804;28;45430;-55
2022/07/04 11:31:40;;;;;;;;;3.25;2.00;;;;;;;;4912798;28;45393;-50
2022/07/04 11:34:06;;;;;;;;;2.40;1.00;;;;;;;;4927506;28;45781;-53
2022/07/04 11:36:31;;;;;;;;;2.50;1.00;;;;;;;;4933269;28;45745;-55
2022/07/04 11:39:03;;;;;;;;;3.00;2.50;;;;;;;;4933834;28;45484;-56
2022/07/04 11:47:01;;;;;;;;;2.60;2.60;;;;;;;;4914352;28;45834;-51
2022/07/04 11:49:26;;;;;;;;;1.00;1.00;;;;;;;;4923992;28;45578;-55
2022/07/04 11:51:55;;;;;;;;;2.00;2.00;;;;;;;;4925711;28;46244;-52
2022/07/04 11:54:20;;;;;;;;;4.20;2.60;;;;;;;;4901208;28;45775;-51
2022/07/04 11:56:46;;;;;;;;;3.00;2.00;;;;;;;;4914054;28;45620;-48
2022/07/04 11:59:12;;;;;;;;;2.50;2.50;;;;;;;;4933064;28;45500;-52
2022/07/04 12:01:38;;;;;;;;;1.80;1.80;;;;;;;;4916720;28;47197;-50
2022/07/04 12:04:14;;;;;;;;;2.50;2.50;;;;;;;;4900158;28;45665;-52
2022/07/04 12:06:40;;;;;;;;;1.00;1.00;;;;;;;;4924947;28;45393;-50
2022/07/04 12:09:05;;;;;;;;;3.00;3.00;;;;;;;;4933285;28;45645;-50
2022/07/04 12:11:49;;;;;;;;;3.00;3.00;;;;;;;;4915498;28;46221;-52
2022/07/04 12:14:15;;;;;;;;;2.00;2.00;;;;;;;;4917352;28;45709;-52
2022/07/04 12:16:40;;;;;;;;;2.25;2.25;;;;;;;;4917131;28;45439;-52
2022/07/04 12:19:09;;;;;;;;;3.75;2.75;;;;;;;;4917643;28;45666;-56
2022/07/04 12:21:34;;;;;;;;;2.40;2.40;;;;;;;;4890126;28;46037;-59
2022/07/04 12:24:02;;;;;;;;;2.75;2.75;;;;;;;;4936104;28;45422;-54
2022/07/04 12:26:28;;;;;;;;;3.00;3.00;;;;;;;;4930909;28;45519;-58
2022/07/04 12:28:53;;;;;;;;;4.25;3.25;;;;;;;;4915899;28;45881;-56
2022/07/04 12:31:18;;;;;;;;;3.00;3.00;;;;;;;;4916783;28;46403;-55
2022/07/04 12:33:53;;;;;;;;;3.50;1.50;;;;;;;;4916432;28;45676;-57
2022/07/04 12:36:18;;;;;;;;;2.00;2.00;;;;;;;;4917310;28;45438;-54
2022/07/04 12:38:44;;;;;;;;;1.25;1.25;;;;;;;;4917106;28;45391;-50
2022/07/04 12:41:13;;;;;;;;;2.00;2.00;;;;;;;;4914897;28;46087;-52
2022/07/04 12:43:41;;;;;;;;;1.80;1.20;;;;;;;;4916834;28;45427;-56
2022/07/04 12:46:09;;;;;;;;;1.20;1.20;;;;;;;;4916280;28;45879;-55
2022/07/04 12:48:34;;;;;;;;;1.00;1.00;;;;;;;;4920776;28;45625;-54
2022/07/04 12:51:10;;;;;;;;;1.00;1.00;;;;;;;;4935429;28;46150;-55
2022/07/04 12:53:36;;;;;;;;;2.60;1.20;;;;;;;;4915086;28;45423;-56
2022/07/04 12:56:01;;;;;;;;;2.25;2.25;;;;;;;;4933485;28;45525;-58
2022/07/04 12:58:26;;;;;;;;;1.75;1.00;;;;;;;;4916326;28;45846;-56
2022/07/04 13:00:51;;;;;;;;;1.50;1.50;;;;;;;;4916540;28;46927;-50
2022/07/04 13:03:17;;;;;;;;;1.00;1.00;;;;;;;;4916294;28;45412;-53
2022/07/04 13:05:42;;;;;;;;;2.25;2.00;;;;;;;;4916725;28;45472;-55
2022/07/04 13:08:07;;;;;;;;;1.50;1.50;;;;;;;;4933696;28;45438;-56
2022/07/04 13:10:33;;;;;;;;;1.25;1.25;;;;;;;;4928133;28;45442;-52
2022/07/04 13:12:58;;;;;;;;;2.00;2.00;;;;;;;;4932008;28;45466;-55
2022/07/04 13:15:24;;;;;;;;;1.00;1.00;;;;;;;;4933647;28;45527;-52
2022/07/04 13:17:49;;;;;;;;;3.75;2.50;;;;;;;;4932720;28;45611;-50
2022/07/04 13:20:14;;;;;;;;;2.00;2.00;;;;;;;;4925253;28;46492;-50
2022/07/04 13:22:39;;;;;;;;;1.50;1.50;;;;;;;;4912503;28;45416;-52
2022/07/04 13:25:06;;;;;;;;;2.00;1.25;;;;;;;;4914840;28;45428;-53
2022/07/04 13:27:31;;;;;;;;;2.00;2.00;;;;;;;;4917915;28;45567;-55
2022/07/04 13:29:57;;;;;;;;;2.50;2.00;;;;;;;;4934351;28;45954;-54
2022/07/04 13:32:22;;;;;;;;;2.25;2.25;;;;;;;;4933421;28;45467;-52
2022/07/04 13:34:47;;;;;;;;;2.50;2.50;;;;;;;;4925985;28;45634;-48
2022/07/04 13:37:15;;;;;;;;;3.00;2.00;;;;;;;;4915413;28;45782;-50
2022/07/04 13:39:40;;;;;;;;;2.00;2.00;;;;;;;;4914736;28;46751;-51
2022/07/04 13:42:05;;;;;;;;;1.00;1.00;;;;;;;;4915221;28;45670;-51
2022/07/04 13:44:31;;;;;;;;;1.00;1.00;;;;;;;;4914113;28;45518;-59
2022/07/04 13:46:58;;;;;;;;;1.00;1.00;;;;;;;;4914469;28;46144;-58
2022/07/04 13:49:23;;;;;;;;;2.00;2.00;;;;;;;;4914753;28;46925;-56
2022/07/04 13:51:48;;;;;;;;;1.00;1.00;;;;;;;;4915058;28;46074;-52
2022/07/04 13:54:14;;;;;;;;;2.50;2.00;;;;;;;;4890023;28;45471;-50
2022/07/04 13:56:39;;;;;;;;;1.25;1.25;;;;;;;;4950919;28;45390;-53
2022/07/04 13:59:04;;;;;;;;;1.00;1.00;;;;;;;;4949150;28;45808;-54
2022/07/04 14:01:29;;;;;;;;;1.50;1.25;;;;;;;;4933237;28;45426;-54
2022/07/04 14:03:55;;;;;;;;;1.50;1.00;;;;;;;;4950567;28;45831;-52
2022/07/04 14:06:20;;;;;;;;;0.00;0.00;;;;;;;;4950209;28;45953;-50
2022/07/04 14:08:45;;;;;;;;;1.00;1.00;;;;;;;;4914309;28;45557;-48
2022/07/04 14:11:11;;;;;;;;;3.00;2.00;;;;;;;;4937189;28;45605;-52
2022/07/04 14:13:36;;;;;;;;;1.00;1.00;;;;;;;;4950355;28;45578;-49
2022/07/04 14:16:04;;;;;;;;;3.00;1.00;;;;;;;;4949982;28;45804;-55
2022/07/04 14:18:29;;;;;;;;;1.00;1.00;;;;;;;;4949881;28;47243;-50
2022/07/04 14:20:55;;;;;;;;;1.00;0.75;;;;;;;;4949731;28;45932;-54
2022/07/04 14:26:04;;;;;;;;;1.60;1.00;;;;;;;;4946465;28;45470;-50
2022/07/04 14:28:30;;;;;;;;;1.00;1.00;;;;;;;;4914277;28;45631;-49
2022/07/04 14:30:55;;;;;;;;;1.25;1.25;;;;;;;;4914286;28;45731;-52
2022/07/04 14:33:20;;;;;;;;;0.00;0.00;;;;;;;;4914600;28;45446;-52
2022/07/04 14:35:45;;;;;;;;;2.00;2.00;;;;;;;;4922644;28;45722;-54
2022/07/04 14:38:11;;;;;;;;;1.00;1.00;;;;;;;;4933056;28;45657;-48
2022/07/04 14:40:38;;;;;;;;;1.75;1.00;;;;;;;;4933513;28;45522;-51
2022/07/04 14:43:04;;;;;;;;;1.00;1.00;;;;;;;;4933516;28;45519;-54
2022/07/04 14:45:30;;;;;;;;;1.25;1.25;;;;;;;;4932974;28;45455;-52
2022/07/04 14:47:55;;;;;;;;;2.00;2.00;;;;;;;;4932049;28;46299;-54
2022/07/04 14:50:20;;;;;;;;;1.00;1.00;;;;;;;;4915796;28;45548;-55
2022/07/04 14:52:45;;;;;;;;;1.00;1.00;;;;;;;;4913932;28;45783;-54
2022/07/04 14:55:11;;;;;;;;;2.00;1.00;;;;;;;;4910560;28;45492;-48
2022/07/04 14:57:36;;;;;;;;;1.00;1.00;;;;;;;;4933184;28;45767;-50
2022/07/04 15:00:01;;;;;;;;;2.00;2.00;;;;;;;;4922994;28;45931;-56
2022/07/04 15:02:27;;;;;;;;;0.75;0.75;;;;;;;;4913873;28;45857;-53